sensor_id;sensor_type;location;lat;lon;timestamp;pressure;altitude;pressure_sealevel;temperature;humidity
29879;BME280;16752;53.364;-1.488;2023-01-15T00:01:03;98069.00;;;11.74;39.15
29879;BME280;16752;53.364;-1.488;2023-01-15T00:03:29;98050.19;;;10.46;41.77
29879;BME280;16752;53.364;-1.488;2023-01-15T00:06:01;98043.06;;;11.39;39.98
29879;BME280;16752;53.364;-1.488;2023-01-15T00:08:36;98064.75;;;10.90;41.45
29879;BME280;16752;53.364;-1.488;2023-01-15T00:11:02;98051.34;;;11.01;40.94
29879;BME280;16752;53.364;-1.488;2023-01-15T00:13:31;98043.44;;;10.17;41.72
29879;BME280;16752;53.364;-1.488;2023-01-15T00:18:53;98026.16;;;11.09;40.12
29879;BME280;16752;53.364;-1.488;2023-01-15T00:21:24;98024.56;;;10.65;41.09
29879;BME280;16752;53.364;-1.488;2023-01-15T00:24:04;98024.88;;;11.29;40.34
29879;BME280;16752;53.364;-1.488;2023-01-15T00:27:02;98025.53;;;11.39;39.68
29879;BME280;16752;53.364;-1.488;2023-01-15T00:29:47;98017.34;;;11.91;38.57
29879;BME280;16752;53.364;-1.488;2023-01-15T00:32:12;98026.03;;;11.67;39.50
29879;BME280;16752;53.364;-1.488;2023-01-15T00:34:38;98020.25;;;10.48;41.03
29879;BME280;16752;53.364;-1.488;2023-01-15T00:40:37;98007.75;;;10.76;40.83
29879;BME280;16752;53.364;-1.488;2023-01-15T00:42:52;97996.81;;;10.38;41.38
29879;BME280;16752;53.364;-1.488;2023-01-15T00:45:18;98008.50;;;10.60;40.67
29879;BME280;16752;53.364;-1.488;2023-01-15T00:47:43;98020.59;;;11.20;39.58
29879;BME280;16752;53.364;-1.488;2023-01-15T00:50:12;98001.28;;;10.46;40.64
29879;BME280;16752;53.364;-1.488;2023-01-15T00:52:38;98007.56;;;10.78;39.96
29879;BME280;16752;53.364;-1.488;2023-01-15T00:55:22;97998.41;;;10.31;41.02
29879;BME280;16752;53.364;-1.488;2023-01-15T00:57:47;97991.44;;;10.14;41.43
29879;BME280;16752;53.364;-1.488;2023-01-15T01:00:19;98003.25;;;10.52;40.29
29879;BME280;16752;53.364;-1.488;2023-01-15T01:06:25;98009.97;;;10.55;39.11
29879;BME280;16752;53.364;-1.488;2023-01-15T01:09:13;98017.41;;;10.33;39.36
29879;BME280;16752;53.364;-1.488;2023-01-15T01:11:38;98026.53;;;10.63;38.90
29879;BME280;16752;53.364;-1.488;2023-01-15T01:14:08;98017.81;;;9.95;39.23
29879;BME280;16752;53.364;-1.488;2023-01-15T01:16:34;98023.03;;;11.05;37.74
29879;BME280;16752;53.364;-1.488;2023-01-15T01:22:54;98014.06;;;11.32;37.54
29879;BME280;16752;53.364;-1.488;2023-01-15T01:25:20;97999.50;;;11.29;37.36
29879;BME280;16752;53.364;-1.488;2023-01-15T01:30:51;97998.06;;;10.26;39.00
29879;BME280;16752;53.364;-1.488;2023-01-15T01:33:17;98002.06;;;10.89;38.23
29879;BME280;16752;53.364;-1.488;2023-01-15T01:35:51;97999.38;;;10.73;38.10
29879;BME280;16752;53.364;-1.488;2023-01-15T01:38:17;97996.53;;;11.41;37.04
29879;BME280;16752;53.364;-1.488;2023-01-15T01:40:58;98010.53;;;10.75;38.26
29879;BME280;16752;53.364;-1.488;2023-01-15T01:43:55;97990.09;;;9.76;40.05
29879;BME280;16752;53.364;-1.488;2023-01-15T01:46:39;97997.25;;;10.76;38.96
29879;BME280;16752;53.364;-1.488;2023-01-15T01:49:22;97998.91;;;10.77;37.95
29879;BME280;16752;53.364;-1.488;2023-01-15T01:52:02;97993.56;;;10.45;38.93
29879;BME280;16752;53.364;-1.488;2023-01-15T01:54:36;98012.75;;;11.36;37.56
29879;BME280;16752;53.364;-1.488;2023-01-15T01:57:05;98026.41;;;10.81;38.30
29879;BME280;16752;53.364;-1.488;2023-01-15T01:59:47;98019.25;;;10.91;37.94
29879;BME280;16752;53.364;-1.488;2023-01-15T02:02:30;97982.03;;;10.63;38.39
29879;BME280;16752;53.364;-1.488;2023-01-15T02:04:59;97989.31;;;10.44;38.22
29879;BME280;16752;53.364;-1.488;2023-01-15T02:07:25;98000.91;;;10.91;37.79
29879;BME280;16752;53.364;-1.488;2023-01-15T02:09:59;97965.72;;;10.86;38.04
29879;BME280;16752;53.364;-1.488;2023-01-15T02:12:34;97968.34;;;10.94;38.11
29879;BME280;16752;53.364;-1.488;2023-01-15T02:15:13;97960.94;;;10.73;38.84
29879;BME280;16752;53.364;-1.488;2023-01-15T02:17:54;97943.63;;;9.70;39.80
29879;BME280;16752;53.364;-1.488;2023-01-15T02:20:25;97938.56;;;10.36;39.11
29879;BME280;16752;53.364;-1.488;2023-01-15T02:28:59;97952.13;;;10.32;39.66
29879;BME280;16752;53.364;-1.488;2023-01-15T02:31:33;97957.53;;;10.30;39.30
29879;BME280;16752;53.364;-1.488;2023-01-15T02:34:16;97972.38;;;9.26;41.63
29879;BME280;16752;53.364;-1.488;2023-01-15T02:36:50;97975.03;;;10.04;40.07
29879;BME280;16752;53.364;-1.488;2023-01-15T02:39:22;97971.16;;;11.09;38.56
29879;BME280;16752;53.364;-1.488;2023-01-15T02:41:49;97977.28;;;10.67;39.05
29879;BME280;16752;53.364;-1.488;2023-01-15T02:44:17;97975.88;;;11.05;38.87
29879;BME280;16752;53.364;-1.488;2023-01-15T02:46:46;97985.97;;;9.73;40.99
29879;BME280;16752;53.364;-1.488;2023-01-15T02:49:18;97979.97;;;10.99;38.80
29879;BME280;16752;53.364;-1.488;2023-01-15T02:52:03;97980.81;;;9.82;41.70
29879;BME280;16752;53.364;-1.488;2023-01-15T02:54:42;97973.66;;;10.60;40.05
29879;BME280;16752;53.364;-1.488;2023-01-15T02:57:17;97972.06;;;10.83;40.35
29879;BME280;16752;53.364;-1.488;2023-01-15T02:59:45;97974.88;;;10.98;40.12
29879;BME280;16752;53.364;-1.488;2023-01-15T03:02:15;97972.78;;;11.34;38.98
29879;BME280;16752;53.364;-1.488;2023-01-15T03:04:46;97975.41;;;9.57;43.02
29879;BME280;16752;53.364;-1.488;2023-01-15T03:07:20;97971.97;;;9.83;42.66
29879;BME280;16752;53.364;-1.488;2023-01-15T03:09:46;97959.28;;;9.96;42.36
29879;BME280;16752;53.364;-1.488;2023-01-15T03:12:29;97957.00;;;10.69;40.98
29879;BME280;16752;53.364;-1.488;2023-01-15T03:15:03;97951.66;;;10.36;42.17
29879;BME280;16752;53.364;-1.488;2023-01-15T03:18:00;97957.53;;;11.05;40.39
29879;BME280;16752;53.364;-1.488;2023-01-15T03:20:27;97950.22;;;10.08;42.63
29879;BME280;16752;53.364;-1.488;2023-01-15T03:23:10;97953.97;;;10.14;42.73
29879;BME280;16752;53.364;-1.488;2023-01-15T03:25:47;97959.13;;;10.82;40.59
29879;BME280;16752;53.364;-1.488;2023-01-15T03:28:29;97955.84;;;10.71;41.24
29879;BME280;16752;53.364;-1.488;2023-01-15T03:31:07;97942.00;;;11.36;40.20
29879;BME280;16752;53.364;-1.488;2023-01-15T03:33:33;97944.09;;;10.92;41.50
29879;BME280;16752;53.364;-1.488;2023-01-15T03:35:59;97940.25;;;10.11;42.79
29879;BME280;16752;53.364;-1.488;2023-01-15T03:38:26;97934.66;;;9.46;43.96
29879;BME280;16752;53.364;-1.488;2023-01-15T04:00:45;97909.19;;;11.48;39.90
29879;BME280;16752;53.364;-1.488;2023-01-15T04:03:16;97902.00;;;10.69;41.19
29879;BME280;16752;53.364;-1.488;2023-01-15T04:05:46;97905.47;;;10.86;41.01
29879;BME280;16752;53.364;-1.488;2023-01-15T04:08:13;97893.41;;;10.26;41.74
29879;BME280;16752;53.364;-1.488;2023-01-15T04:11:01;97883.66;;;10.61;41.80
29879;BME280;16752;53.364;-1.488;2023-01-15T04:13:30;97867.63;;;10.48;42.60
29879;BME280;16752;53.364;-1.488;2023-01-15T04:15:58;97872.44;;;12.20;39.00
29879;BME280;16752;53.364;-1.488;2023-01-15T04:18:24;97867.66;;;11.13;40.80
29879;BME280;16752;53.364;-1.488;2023-01-15T04:20:50;97875.00;;;11.33;40.24
29879;BME280;16752;53.364;-1.488;2023-01-15T04:23:18;97886.31;;;10.85;40.68
29879;BME280;16752;53.364;-1.488;2023-01-15T04:25:43;97875.06;;;11.64;39.97
29879;BME280;16752;53.364;-1.488;2023-01-15T04:28:09;97862.06;;;10.51;42.25
29879;BME280;16752;53.364;-1.488;2023-01-15T04:30:34;97867.50;;;10.90;40.82
29879;BME280;16752;53.364;-1.488;2023-01-15T04:33:03;97862.72;;;10.77;41.27
29879;BME280;16752;53.364;-1.488;2023-01-15T04:35:31;97847.75;;;11.43;39.99
29879;BME280;16752;53.364;-1.488;2023-01-15T04:40:57;97835.53;;;12.21;37.98
29879;BME280;16752;53.364;-1.488;2023-01-15T04:44:05;97838.75;;;11.53;40.00
29879;BME280;16752;53.364;-1.488;2023-01-15T04:46:30;97834.88;;;12.19;38.49
29879;BME280;16752;53.364;-1.488;2023-01-15T04:49:17;97817.91;;;10.64;41.67
29879;BME280;16752;53.364;-1.488;2023-01-15T04:51:42;97828.25;;;12.01;38.77
29879;BME280;16752;53.364;-1.488;2023-01-15T04:57:17;97819.03;;;10.69;41.58
29879;BME280;16752;53.364;-1.488;2023-01-15T04:59:48;97819.69;;;10.71;42.04
29879;BME280;16752;53.364;-1.488;2023-01-15T05:02:14;97813.13;;;11.63;40.26
29879;BME280;16752;53.364;-1.488;2023-01-15T05:04:40;97812.25;;;11.32;40.69
29879;BME280;16752;53.364;-1.488;2023-01-15T05:07:09;97809.19;;;11.68;39.87
29879;BME280;16752;53.364;-1.488;2023-01-15T05:09:36;97797.59;;;10.25;43.73
29879;BME280;16752;53.364;-1.488;2023-01-15T05:12:02;97814.94;;;10.75;41.94
29879;BME280;16752;53.364;-1.488;2023-01-15T05:14:28;97809.22;;;11.59;41.01
29879;BME280;16752;53.364;-1.488;2023-01-15T05:16:53;97816.56;;;10.52;43.31
29879;BME280;16752;53.364;-1.488;2023-01-15T05:19:19;97810.28;;;11.34;41.28
29879;BME280;16752;53.364;-1.488;2023-01-15T05:21:45;97819.97;;;11.81;40.90
29879;BME280;16752;53.364;-1.488;2023-01-15T05:24:17;97824.06;;;11.83;40.10
29879;BME280;16752;53.364;-1.488;2023-01-15T05:26:43;97828.03;;;11.71;40.88
29879;BME280;16752;53.364;-1.488;2023-01-15T05:29:09;97832.41;;;11.87;40.92
29879;BME280;16752;53.364;-1.488;2023-01-15T05:31:36;97838.34;;;12.12;40.38
29879;BME280;16752;53.364;-1.488;2023-01-15T05:34:07;97846.53;;;10.90;42.52
29879;BME280;16752;53.364;-1.488;2023-01-15T05:36:35;97836.94;;;12.01;40.41
29879;BME280;16752;53.364;-1.488;2023-01-15T05:39:02;97849.34;;;12.15;40.20
29879;BME280;16752;53.364;-1.488;2023-01-15T05:41:28;97837.00;;;11.85;40.74
29879;BME280;16752;53.364;-1.488;2023-01-15T05:44:15;97833.19;;;12.27;40.31
29879;BME280;16752;53.364;-1.488;2023-01-15T05:49:46;97872.16;;;10.37;43.58
29879;BME280;16752;53.364;-1.488;2023-01-15T05:52:47;97858.34;;;12.13;40.16
29879;BME280;16752;53.364;-1.488;2023-01-15T05:55:09;97814.44;;;10.80;43.06
29879;BME280;16752;53.364;-1.488;2023-01-15T05:57:44;97849.06;;;12.02;40.95
29879;BME280;16752;53.364;-1.488;2023-01-15T06:00:10;97853.44;;;12.18;41.21
29879;BME280;16752;53.364;-1.488;2023-01-15T06:02:46;97846.94;;;12.60;41.19
29879;BME280;16752;53.364;-1.488;2023-01-15T06:05:31;97853.03;;;11.98;43.13
29879;BME280;16752;53.364;-1.488;2023-01-15T06:07:56;97846.59;;;11.53;43.60
29879;BME280;16752;53.364;-1.488;2023-01-15T06:10:43;97835.06;;;11.71;43.83
29879;BME280;16752;53.364;-1.488;2023-01-15T06:13:09;97870.25;;;10.96;46.81
29879;BME280;16752;53.364;-1.488;2023-01-15T06:21:44;97868.75;;;10.61;48.05
29879;BME280;16752;53.364;-1.488;2023-01-15T06:24:18;97861.56;;;10.55;48.82
29879;BME280;16752;53.364;-1.488;2023-01-15T06:29:25;97854.09;;;11.64;46.74
29879;BME280;16752;53.364;-1.488;2023-01-15T06:31:51;97855.09;;;11.63;46.69
29879;BME280;16752;53.364;-1.488;2023-01-15T06:34:26;97846.13;;;11.50;47.15
29879;BME280;16752;53.364;-1.488;2023-01-15T06:37:17;97884.66;;;11.17;47.82
29879;BME280;16752;53.364;-1.488;2023-01-15T06:39:59;97866.69;;;9.72;51.03
29879;BME280;16752;53.364;-1.488;2023-01-15T06:46:36;97899.38;;;11.42;48.60
29879;BME280;16752;53.364;-1.488;2023-01-15T06:49:21;97911.84;;;10.75;49.88
29879;BME280;16752;53.364;-1.488;2023-01-15T06:52:16;97903.44;;;11.61;48.35
29879;BME280;16752;53.364;-1.488;2023-01-15T06:57:52;97921.69;;;11.30;48.37
29879;BME280;16752;53.364;-1.488;2023-01-15T07:00:30;97919.31;;;11.84;47.91
29879;BME280;16752;53.364;-1.488;2023-01-15T07:03:31;97948.66;;;10.65;49.45
29879;BME280;16752;53.364;-1.488;2023-01-15T07:05:48;97944.56;;;10.79;49.84
29879;BME280;16752;53.364;-1.488;2023-01-15T07:08:17;97950.03;;;11.10;49.59
29879;BME280;16752;53.364;-1.488;2023-01-15T07:10:45;97950.47;;;11.06;48.75
29879;BME280;16752;53.364;-1.488;2023-01-15T07:13:14;97945.88;;;11.64;48.14
29879;BME280;16752;53.364;-1.488;2023-01-15T07:15:45;97958.16;;;10.75;49.44
29879;BME280;16752;53.364;-1.488;2023-01-15T07:18:20;97954.78;;;11.07;48.87
29879;BME280;16752;53.364;-1.488;2023-01-15T07:21:31;97953.78;;;11.16;48.93
29879;BME280;16752;53.364;-1.488;2023-01-15T07:27:11;97942.22;;;10.44;49.68
29879;BME280;16752;53.364;-1.488;2023-01-15T07:32:32;97934.28;;;11.26;49.15
29879;BME280;16752;53.364;-1.488;2023-01-15T07:35:22;97955.03;;;10.79;49.49
29879;BME280;16752;53.364;-1.488;2023-01-15T07:38:01;97954.91;;;11.21;48.99
29879;BME280;16752;53.364;-1.488;2023-01-15T07:43:43;97975.97;;;10.63;49.49
29879;BME280;16752;53.364;-1.488;2023-01-15T07:46:27;97974.22;;;11.04;48.95
29879;BME280;16752;53.364;-1.488;2023-01-15T07:49:34;97975.38;;;11.67;48.03
29879;BME280;16752;53.364;-1.488;2023-01-15T07:52:18;97971.28;;;12.36;46.11
29879;BME280;16752;53.364;-1.488;2023-01-15T07:54:55;97977.66;;;11.05;48.90
29879;BME280;16752;53.364;-1.488;2023-01-15T07:57:41;97977.84;;;11.19;48.95
29879;BME280;16752;53.364;-1.488;2023-01-15T08:06:02;97999.91;;;10.84;50.10
29879;BME280;16752;53.364;-1.488;2023-01-15T08:08:49;97993.72;;;10.93;50.55
29879;BME280;16752;53.364;-1.488;2023-01-15T08:11:17;98006.84;;;11.67;48.88
29879;BME280;16752;53.364;-1.488;2023-01-15T08:36:45;98008.81;;;11.89;48.37
29879;BME280;16752;53.364;-1.488;2023-01-15T08:39:13;98025.53;;;12.04;48.27
29879;BME280;16752;53.364;-1.488;2023-01-15T09:06:56;98079.78;;;11.47;49.32
29879;BME280;16752;53.364;-1.488;2023-01-15T11:09:56;98288.59;;;14.60;43.98
29879;BME280;16752;53.364;-1.488;2023-01-15T11:19:27;98287.03;;;14.89;43.88
29879;BME280;16752;53.364;-1.488;2023-01-15T11:22:14;98287.44;;;15.01;43.79
29879;BME280;16752;53.364;-1.488;2023-01-15T12:05:34;98291.16;;;15.36;43.66
29879;BME280;16752;53.364;-1.488;2023-01-15T12:10:59;98283.03;;;15.96;42.37
29879;BME280;16752;53.364;-1.488;2023-01-15T12:29:16;98280.16;;;16.48;40.29
29879;BME280;16752;53.364;-1.488;2023-01-15T12:34:25;98287.19;;;15.69;40.86
29879;BME280;16752;53.364;-1.488;2023-01-15T12:37:10;98280.41;;;17.03;39.36
29879;BME280;16752;53.364;-1.488;2023-01-15T12:39:47;98279.31;;;14.42;43.79
29879;BME280;16752;53.364;-1.488;2023-01-15T12:42:18;98283.34;;;14.98;42.95
29879;BME280;16752;53.364;-1.488;2023-01-15T12:45:08;98281.88;;;13.65;45.40
29879;BME280;16752;53.364;-1.488;2023-01-15T12:47:40;98280.44;;;15.37;42.36
29879;BME280;16752;53.364;-1.488;2023-01-15T12:52:34;98301.34;;;14.72;43.47
29879;BME280;16752;53.364;-1.488;2023-01-15T12:55:18;98308.59;;;15.07;43.28
29879;BME280;16752;53.364;-1.488;2023-01-15T12:57:48;98302.44;;;14.31;45.34
29879;BME280;16752;53.364;-1.488;2023-01-15T13:00:17;98312.50;;;14.96;43.92
29879;BME280;16752;53.364;-1.488;2023-01-15T13:05:18;98318.19;;;15.52;42.53
29879;BME280;16752;53.364;-1.488;2023-01-15T13:10:29;98314.47;;;15.76;41.90
29879;BME280;16752;53.364;-1.488;2023-01-15T13:13:07;98315.59;;;15.67;41.80
29879;BME280;16752;53.364;-1.488;2023-01-15T13:15:38;98318.13;;;15.75;41.98
29879;BME280;16752;53.364;-1.488;2023-01-15T13:18:12;98312.91;;;15.23;43.30
29879;BME280;16752;53.364;-1.488;2023-01-15T13:20:47;98313.88;;;13.85;45.98
29879;BME280;16752;53.364;-1.488;2023-01-15T13:28:47;98312.91;;;15.52;42.40
29879;BME280;16752;53.364;-1.488;2023-01-15T13:33:57;98314.72;;;15.96;41.35
29879;BME280;16752;53.364;-1.488;2023-01-15T13:36:32;98320.16;;;14.68;44.25
29879;BME280;16752;53.364;-1.488;2023-01-15T13:39:04;98320.13;;;15.73;42.90
29879;BME280;16752;53.364;-1.488;2023-01-15T13:41:32;98320.41;;;16.29;41.74
29879;BME280;16752;53.364;-1.488;2023-01-15T13:44:22;98327.44;;;16.43;41.17
29879;BME280;16752;53.364;-1.488;2023-01-15T13:46:56;98325.97;;;15.83;42.05
29879;BME280;16752;53.364;-1.488;2023-01-15T13:49:25;98332.59;;;15.94;43.08
29879;BME280;16752;53.364;-1.488;2023-01-15T13:51:52;98333.97;;;16.26;41.82
29879;BME280;16752;53.364;-1.488;2023-01-15T13:54:18;98325.91;;;17.20;40.47
29879;BME280;16752;53.364;-1.488;2023-01-15T13:56:45;98328.78;;;17.87;39.08
29879;BME280;16752;53.364;-1.488;2023-01-15T14:01:55;98331.69;;;16.23;40.78
29879;BME280;16752;53.364;-1.488;2023-01-15T14:04:31;98326.00;;;16.05;41.37
29879;BME280;16752;53.364;-1.488;2023-01-15T14:06:57;98330.75;;;15.95;40.88
29879;BME280;16752;53.364;-1.488;2023-01-15T14:09:27;98337.06;;;15.64;41.89
29879;BME280;16752;53.364;-1.488;2023-01-15T14:22:34;98337.31;;;18.37;35.90
29879;BME280;16752;53.364;-1.488;2023-01-15T14:33:10;98339.22;;;17.05;38.17
29879;BME280;16752;53.364;-1.488;2023-01-15T14:35:44;98334.03;;;15.52;41.35
29879;BME280;16752;53.364;-1.488;2023-01-15T14:38:17;98331.75;;;15.94;40.87
29879;BME280;16752;53.364;-1.488;2023-01-15T14:41:22;98325.19;;;16.40;40.22
29879;BME280;16752;53.364;-1.488;2023-01-15T14:43:37;98331.97;;;15.63;41.59
29879;BME280;16752;53.364;-1.488;2023-01-15T14:46:11;98327.50;;;15.78;41.45
29879;BME280;16752;53.364;-1.488;2023-01-15T14:48:37;98320.06;;;16.03;41.15
29879;BME280;16752;53.364;-1.488;2023-01-15T14:51:13;98335.09;;;16.17;40.81
29879;BME280;16752;53.364;-1.488;2023-01-15T14:53:41;98324.38;;;15.30;42.32
29879;BME280;16752;53.364;-1.488;2023-01-15T14:56:19;98323.63;;;14.15;44.40
29879;BME280;16752;53.364;-1.488;2023-01-15T14:58:47;98331.38;;;15.38;42.57
29879;BME280;16752;53.364;-1.488;2023-01-15T15:03:49;98330.94;;;14.28;44.53
29879;BME280;16752;53.364;-1.488;2023-01-15T15:06:16;98331.03;;;14.88;43.46
29879;BME280;16752;53.364;-1.488;2023-01-15T15:08:42;98329.31;;;14.95;43.51
29879;BME280;16752;53.364;-1.488;2023-01-15T15:11:27;98326.03;;;15.61;42.43
29879;BME280;16752;53.364;-1.488;2023-01-15T15:14:14;98325.34;;;15.14;42.86
29879;BME280;16752;53.364;-1.488;2023-01-15T15:16:44;98319.72;;;14.03;44.35
29879;BME280;16752;53.364;-1.488;2023-01-15T15:21:49;98331.41;;;14.62;43.79
29879;BME280;16752;53.364;-1.488;2023-01-15T15:24:31;98339.91;;;15.10;43.02
29879;BME280;16752;53.364;-1.488;2023-01-15T15:27:07;98345.97;;;13.80;45.33
29879;BME280;16752;53.364;-1.488;2023-01-15T15:29:33;98339.44;;;15.07;43.10
29879;BME280;16752;53.364;-1.488;2023-01-15T15:31:59;98334.28;;;15.28;43.07
29879;BME280;16752;53.364;-1.488;2023-01-15T15:36:53;98332.13;;;15.46;42.59
29879;BME280;16752;53.364;-1.488;2023-01-15T15:39:27;98330.28;;;14.57;44.20
29879;BME280;16752;53.364;-1.488;2023-01-15T15:41:54;98336.41;;;14.95;43.28
29879;BME280;16752;53.364;-1.488;2023-01-15T15:44:43;98337.38;;;15.32;42.93
29879;BME280;16752;53.364;-1.488;2023-01-15T15:47:39;98340.66;;;15.34;43.17
29879;BME280;16752;53.364;-1.488;2023-01-15T15:50:24;98334.22;;;15.51;42.88
29879;BME280;16752;53.364;-1.488;2023-01-15T15:52:50;98333.03;;;15.53;42.86
29879;BME280;16752;53.364;-1.488;2023-01-15T15:55:17;98336.31;;;15.41;43.36
29879;BME280;16752;53.364;-1.488;2023-01-15T15:57:48;98330.38;;;15.53;42.98
29879;BME280;16752;53.364;-1.488;2023-01-15T16:00:17;98331.84;;;15.56;42.91
29879;BME280;16752;53.364;-1.488;2023-01-15T16:02:46;98326.22;;;15.59;43.16
29879;BME280;16752;53.364;-1.488;2023-01-15T16:05:26;98339.53;;;15.13;44.28
29879;BME280;16752;53.364;-1.488;2023-01-15T16:07:53;98338.47;;;15.22;43.92
29879;BME280;16752;53.364;-1.488;2023-01-15T16:10:28;98337.22;;;14.95;44.62
29879;BME280;16752;53.364;-1.488;2023-01-15T16:12:56;98331.84;;;15.26;43.65
29879;BME280;16752;53.364;-1.488;2023-01-15T16:15:27;98327.50;;;14.96;43.71
29879;BME280;16752;53.364;-1.488;2023-01-15T16:17:54;98326.78;;;14.11;45.35
29879;BME280;16752;53.364;-1.488;2023-01-15T16:20:21;98326.09;;;14.85;43.98
29879;BME280;16752;53.364;-1.488;2023-01-15T16:22:57;98328.09;;;14.37;44.90
29879;BME280;16752;53.364;-1.488;2023-01-15T16:25:27;98320.03;;;14.31;44.29
29879;BME280;16752;53.364;-1.488;2023-01-15T16:27:55;98320.59;;;13.87;44.94
29879;BME280;16752;53.364;-1.488;2023-01-15T16:30:21;98315.75;;;14.07;44.48
29879;BME280;16752;53.364;-1.488;2023-01-15T16:32:48;98313.66;;;14.25;44.07
29879;BME280;16752;53.364;-1.488;2023-01-15T16:35:16;98312.91;;;14.40;43.52
29879;BME280;16752;53.364;-1.488;2023-01-15T16:37:44;98304.81;;;14.18;43.70
29879;BME280;16752;53.364;-1.488;2023-01-15T16:40:15;98303.75;;;14.35;43.31
29879;BME280;16752;53.364;-1.488;2023-01-15T16:42:43;98300.47;;;14.33;43.15
29879;BME280;16752;53.364;-1.488;2023-01-15T16:45:22;98296.56;;;14.21;43.24
29879;BME280;16752;53.364;-1.488;2023-01-15T16:47:59;98303.06;;;14.11;43.20
29879;BME280;16752;53.364;-1.488;2023-01-15T16:50:26;98301.25;;;13.80;43.88
29879;BME280;16752;53.364;-1.488;2023-01-15T16:52:54;98305.16;;;13.84;43.59
29879;BME280;16752;53.364;-1.488;2023-01-15T17:00:36;98302.63;;;13.60;43.58
29879;BME280;16752;53.364;-1.488;2023-01-15T17:03:11;98300.03;;;13.52;43.49
29879;BME280;16752;53.364;-1.488;2023-01-15T17:05:38;98306.00;;;13.45;43.40
29879;BME280;16752;53.364;-1.488;2023-01-15T17:08:04;98304.66;;;13.41;43.57
29879;BME280;16752;53.364;-1.488;2023-01-15T17:10:32;98298.28;;;13.36;43.55
29879;BME280;16752;53.364;-1.488;2023-01-15T17:12:58;98299.13;;;13.12;44.02
29879;BME280;16752;53.364;-1.488;2023-01-15T17:17:54;98288.63;;;13.20;43.42
29879;BME280;16752;53.364;-1.488;2023-01-15T17:20:22;98291.06;;;13.13;43.60
29879;BME280;16752;53.364;-1.488;2023-01-15T17:22:51;98285.84;;;13.05;43.78
29879;BME280;16752;53.364;-1.488;2023-01-15T17:25:25;98291.13;;;12.81;43.91
29879;BME280;16752;53.364;-1.488;2023-01-15T17:27:52;98283.09;;;12.82;43.75
29879;BME280;16752;53.364;-1.488;2023-01-15T17:30:19;98287.00;;;12.78;44.03
29879;BME280;16752;53.364;-1.488;2023-01-15T17:32:45;98285.69;;;12.74;43.83
29879;BME280;16752;53.364;-1.488;2023-01-15T17:35:44;98288.00;;;12.77;44.04
29879;BME280;16752;53.364;-1.488;2023-01-15T17:38:03;98291.78;;;12.75;44.14
29879;BME280;16752;53.364;-1.488;2023-01-15T17:40:29;98290.13;;;12.74;44.17
29879;BME280;16752;53.364;-1.488;2023-01-15T17:42:54;98287.69;;;12.72;44.20
29879;BME280;16752;53.364;-1.488;2023-01-15T17:45:21;98270.59;;;12.68;44.16
29879;BME280;16752;53.364;-1.488;2023-01-15T17:47:47;98275.84;;;12.68;44.00
29879;BME280;16752;53.364;-1.488;2023-01-15T17:50:13;98272.91;;;12.63;43.93
29879;BME280;16752;53.364;-1.488;2023-01-15T17:52:39;98268.66;;;12.62;44.19
29879;BME280;16752;53.364;-1.488;2023-01-15T17:55:05;98263.88;;;12.66;44.39
29879;BME280;16752;53.364;-1.488;2023-01-15T17:57:51;98258.47;;;12.67;44.37
29879;BME280;16752;53.364;-1.488;2023-01-15T18:00:35;98248.59;;;12.69;44.29
29879;BME280;16752;53.364;-1.488;2023-01-15T18:03:21;98251.06;;;12.71;44.27
29879;BME280;16752;53.364;-1.488;2023-01-15T18:06:08;98248.25;;;12.72;44.47
29879;BME280;16752;53.364;-1.488;2023-01-15T18:08:34;98250.38;;;12.77;44.28
29879;BME280;16752;53.364;-1.488;2023-01-15T18:10:59;98250.25;;;12.70;44.43
29879;BME280;16752;53.364;-1.488;2023-01-15T18:13:25;98248.13;;;12.49;44.78
29879;BME280;16752;53.364;-1.488;2023-01-15T18:15:51;98243.03;;;12.80;44.72
29879;BME280;16752;53.364;-1.488;2023-01-15T18:18:17;98243.97;;;12.88;44.21
29879;BME280;16752;53.364;-1.488;2023-01-15T18:20:42;98231.50;;;12.90;44.30
29879;BME280;16752;53.364;-1.488;2023-01-15T18:23:07;98225.25;;;12.91;44.08
29879;BME280;16752;53.364;-1.488;2023-01-15T18:25:33;98222.31;;;12.85;43.87
29879;BME280;16752;53.364;-1.488;2023-01-15T18:27:59;98226.44;;;12.80;43.96
29879;BME280;16752;53.364;-1.488;2023-01-15T18:30:24;98226.09;;;12.75;44.06
29879;BME280;16752;53.364;-1.488;2023-01-15T18:32:50;98224.00;;;12.62;44.12
29879;BME280;16752;53.364;-1.488;2023-01-15T18:35:15;98220.22;;;12.65;44.02
29879;BME280;16752;53.364;-1.488;2023-01-15T18:37:42;98220.53;;;12.62;43.92
29879;BME280;16752;53.364;-1.488;2023-01-15T18:40:08;98211.66;;;12.54;43.74
29879;BME280;16752;53.364;-1.488;2023-01-15T18:42:39;98210.19;;;12.52;43.80
29879;BME280;16752;53.364;-1.488;2023-01-15T18:45:23;98209.22;;;12.45;43.89
29879;BME280;16752;53.364;-1.488;2023-01-15T18:48:07;98211.84;;;12.29;43.94
29879;BME280;16752;53.364;-1.488;2023-01-15T18:50:33;98209.53;;;12.34;43.96
29879;BME280;16752;53.364;-1.488;2023-01-15T18:52:59;98213.16;;;12.33;43.72
29879;BME280;16752;53.364;-1.488;2023-01-15T18:55:24;98209.53;;;12.34;43.84
29879;BME280;16752;53.364;-1.488;2023-01-15T18:57:53;98215.78;;;12.33;43.82
29879;BME280;16752;53.364;-1.488;2023-01-15T19:00:19;98202.00;;;12.22;43.88
29879;BME280;16752;53.364;-1.488;2023-01-15T19:02:46;98212.66;;;12.29;43.93
29879;BME280;16752;53.364;-1.488;2023-01-15T19:05:12;98202.66;;;12.33;43.93
29879;BME280;16752;53.364;-1.488;2023-01-15T19:07:41;98199.72;;;12.28;44.09
29879;BME280;16752;53.364;-1.488;2023-01-15T19:10:08;98197.09;;;12.28;44.08
29879;BME280;16752;53.364;-1.488;2023-01-15T19:12:34;98194.13;;;12.31;44.23
29879;BME280;16752;53.364;-1.488;2023-01-15T19:15:00;98185.91;;;12.09;44.56
29879;BME280;16752;53.364;-1.488;2023-01-15T19:17:44;98174.47;;;12.18;44.37
29879;BME280;16752;53.364;-1.488;2023-01-15T19:20:28;98169.88;;;12.20;44.05
29879;BME280;16752;53.364;-1.488;2023-01-15T19:22:54;98171.00;;;12.18;43.84
29879;BME280;16752;53.364;-1.488;2023-01-15T19:25:27;98165.75;;;12.18;43.61
29879;BME280;16752;53.364;-1.488;2023-01-15T19:27:53;98160.34;;;12.11;43.98
29879;BME280;16752;53.364;-1.488;2023-01-15T19:30:19;98159.34;;;12.12;44.08